McMicken Heights, Washington
Current Conditions -  °F | °C
As of 11:53 AM on Wednesday 26 Nov 2014 (Local Time) from KSEA Reporting Station
Overcast Overcast  
Wind Chill: 57°   Ceiling: 5000
Heat Index: 57°   Visibility: 10mi
Dew Point: 52°   Wind: 7mph
Humidity: 83%   Direction: 210°SSW
Pressure: 30.09"   Gusts: NA
Location:  47.4488°N, 122.28°W
Report Text: KSEA 261953Z 21006KT 10SM FEW030 OVC050 14/11 A3009 RMK AO2 SLP196 T01390111
Loading
Personal Weather Stations






























Interactive Weather Map New forecast layout! Learn more

10-Day Weather Forecast

Advertisements
Track Severe Weather on mobile